createdAt,value
2023-02-11T00:00:09.848Z,5.82
2023-02-11T00:05:13.400Z,5.95
2023-02-11T00:10:16.852Z,5.68
2023-02-11T00:15:22.316Z,6.13
2023-02-11T00:20:25.820Z,5.53
2023-02-11T00:25:29.305Z,5.50
2023-02-11T00:30:34.292Z,5.57
2023-02-11T00:35:39.022Z,5.15
2023-02-11T00:40:42.558Z,4.82
2023-02-11T00:45:47.464Z,5.50
2023-02-11T00:50:50.865Z,4.90
2023-02-11T00:55:54.214Z,4.65
2023-02-11T01:00:59.122Z,4.75
2023-02-11T01:06:02.702Z,4.53
2023-02-11T01:11:08.794Z,4.93
2023-02-11T01:16:14.278Z,4.68
2023-02-11T01:21:17.668Z,5.10
2023-02-11T01:26:21.120Z,4.95
2023-02-11T01:31:25.940Z,4.07
2023-02-11T01:41:32.617Z,4.05
2023-02-11T01:46:39.271Z,3.92
2023-02-11T01:51:46.765Z,4.25
2023-02-11T01:57:10.494Z,4.45
2023-02-11T02:02:18.860Z,3.20
2023-02-11T02:07:30.527Z,3.35
2023-02-11T02:12:34.006Z,3.17
2023-02-11T02:17:46.242Z,2.90
2023-02-11T02:23:19.177Z,2.92
2023-02-11T02:28:48.548Z,2.60
2023-02-11T02:33:57.917Z,2.58
2023-02-11T02:39:05.971Z,2.78
2023-02-11T02:44:10.300Z,3.15
2023-02-11T02:49:18.076Z,2.63
2023-02-11T02:54:37.636Z,3.15
2023-02-11T02:59:51.936Z,2.53
2023-02-11T03:05:03.575Z,2.15
2023-02-11T03:10:11.952Z,2.40
2023-02-11T03:15:17.915Z,1.90
2023-02-11T03:20:24.463Z,2.50
2023-02-11T03:25:36.585Z,2.67
2023-02-11T03:30:44.450Z,3.00
2023-02-11T03:35:53.488Z,2.72
2023-02-11T03:40:59.357Z,3.10
2023-02-11T03:46:05.061Z,2.88
2023-02-11T03:51:12.865Z,2.35
2023-02-11T03:56:19.088Z,3.65
2023-02-11T04:01:22.710Z,2.70
2023-02-11T04:06:27.607Z,2.20
2023-02-11T04:16:34.382Z,2.60
2023-02-11T04:21:39.341Z,3.10
2023-02-11T04:26:42.848Z,2.70
2023-02-11T04:31:46.412Z,2.88
2023-02-11T04:36:51.519Z,2.38
2023-02-11T04:41:55.032Z,2.28
2023-02-11T04:46:58.767Z,2.83
2023-02-11T04:52:03.645Z,2.70
2023-02-11T04:57:07.213Z,2.67
2023-02-11T05:02:10.576Z,2.33
2023-02-11T05:07:15.688Z,2.13
2023-02-11T05:12:19.412Z,2.28
2023-02-11T05:17:22.944Z,1.90
2023-02-11T05:22:27.860Z,2.20
2023-02-11T05:27:31.270Z,2.15
2023-02-11T05:32:34.808Z,2.17
2023-02-11T05:37:39.714Z,2.17
2023-02-11T05:42:43.266Z,2.22
2023-02-11T05:47:46.729Z,2.47
2023-02-11T05:52:51.525Z,2.13
2023-02-11T05:57:55.123Z,2.25
2023-02-11T06:02:58.583Z,1.98
2023-02-11T06:08:03.368Z,2.30
2023-02-11T06:18:10.142Z,1.90
2023-02-11T06:23:14.912Z,2.72
2023-02-11T06:28:18.408Z,2.88
2023-02-11T06:33:21.826Z,2.40
2023-02-11T06:38:26.733Z,2.38
2023-02-11T06:43:30.230Z,3.10
2023-02-11T06:48:33.601Z,2.72
2023-02-11T06:53:40.100Z,2.90
2023-02-11T06:58:43.656Z,2.45
2023-02-11T07:03:47.365Z,2.95
2023-02-11T07:08:52.130Z,2.60
2023-02-11T07:13:57.600Z,2.65
2023-02-11T07:19:01.127Z,2.65
2023-02-11T07:24:10.764Z,2.90
2023-02-11T07:29:14.673Z,2.35
2023-02-11T07:34:18.290Z,2.40
2023-02-11T07:39:23.184Z,2.83
2023-02-11T07:44:26.560Z,2.97
2023-02-11T07:49:30.212Z,2.78
2023-02-11T07:54:35.198Z,6.13
2023-02-11T07:59:38.710Z,2.60
2023-02-11T08:04:42.144Z,2.63
2023-02-11T08:09:47.321Z,3.95
2023-02-11T08:14:51.573Z,3.00
2023-02-11T08:19:54.961Z,3.17
2023-02-11T08:24:59.970Z,3.30
2023-02-11T08:30:03.375Z,3.70
2023-02-11T08:35:09.515Z,4.30
2023-02-11T08:40:14.510Z,4.78
2023-02-11T08:45:18.082Z,4.88
2023-02-11T08:50:21.859Z,4.93
2023-02-11T08:55:26.684Z,5.38
2023-02-11T09:05:33.193Z,5.25
2023-02-11T09:10:38.415Z,4.78
2023-02-11T09:15:41.777Z,5.35
2023-02-11T09:20:45.099Z,4.72
2023-02-11T09:25:50.232Z,4.63
2023-02-11T09:30:54.187Z,4.82
2023-02-11T09:35:57.914Z,5.10
2023-02-11T09:41:07.927Z,4.80
2023-02-11T09:46:15.442Z,3.47
2023-02-11T09:51:29.574Z,4.50
2023-02-11T09:56:34.538Z,3.80
2023-02-11T10:06:47.603Z,3.97
2023-02-11T10:12:03.240Z,3.78
2023-02-11T10:17:19.153Z,3.90
2023-02-11T10:22:28.708Z,4.28
2023-02-11T10:27:36.018Z,4.00
2023-02-11T10:32:45.937Z,3.60
2023-02-11T10:37:50.064Z,4.40
2023-02-11T10:42:57.969Z,4.20
2023-02-11T10:48:02.530Z,3.63
2023-02-11T10:53:20.774Z,4.25
2023-02-11T10:58:29.732Z,3.90
2023-02-11T11:03:37.813Z,4.40
2023-02-11T11:08:45.064Z,4.88
2023-02-11T11:13:59.458Z,4.85
2023-02-11T11:19:21.572Z,5.03
2023-02-11T11:24:29.699Z,5.40
2023-02-11T11:29:37.269Z,4.82
2023-02-11T11:34:45.330Z,5.05
2023-02-11T11:39:57.267Z,4.70
2023-02-11T11:45:03.343Z,4.30
2023-02-11T11:50:26.745Z,4.78
2023-02-11T11:55:36.602Z,4.85
2023-02-11T12:00:53.424Z,5.72
2023-02-11T12:06:22.359Z,5.63
2023-02-11T12:11:34.708Z,5.63
2023-02-11T12:16:48.590Z,5.63
2023-02-11T12:22:02.719Z,5.35
2023-02-11T12:27:13.013Z,6.03
2023-02-11T12:32:27.648Z,5.75
2023-02-11T12:37:43.694Z,6.05
2023-02-11T12:43:14.024Z,6.07
2023-02-11T12:48:35.969Z,5.60
2023-02-11T12:54:16.168Z,5.82
2023-02-11T12:59:30.929Z,5.95
2023-02-11T13:04:42.279Z,6.57
2023-02-11T13:09:52.694Z,7.22
2023-02-11T13:15:00.728Z,5.97
2023-02-11T13:20:16.308Z,6.32
2023-02-11T13:25:31.035Z,7.20
2023-02-11T13:31:12.964Z,7.30
2023-02-11T13:36:21.041Z,6.95
2023-02-11T13:41:28.995Z,7.32
2023-02-11T13:47:09.978Z,8.13
2023-02-11T13:52:26.251Z,9.52
2023-02-11T13:57:39.472Z,10.32
2023-02-11T14:03:00.556Z,8.85
2023-02-11T14:08:39.221Z,9.60
2023-02-11T14:14:19.459Z,10.65
2023-02-11T14:19:33.724Z,10.27
2023-02-11T14:24:52.381Z,8.57
2023-02-11T14:30:10.406Z,8.80
2023-02-11T14:35:21.939Z,10.52
2023-02-11T14:40:33.464Z,10.13
2023-02-11T14:45:38.591Z,9.93
2023-02-11T14:50:45.647Z,10.60
2023-02-11T14:55:52.733Z,8.65
2023-02-11T15:00:58.990Z,9.73
2023-02-11T15:06:06.779Z,6.75
2023-02-11T15:11:14.600Z,9.40
2023-02-11T15:16:21.806Z,9.68
2023-02-11T15:21:28.053Z,9.18
2023-02-11T15:26:33.439Z,10.15
2023-02-11T15:31:37.177Z,7.95
2023-02-11T15:36:40.813Z,10.02
2023-02-11T15:41:47.305Z,9.88
2023-02-11T15:46:50.888Z,9.50
2023-02-11T15:51:58.330Z,10.23
2023-02-11T15:57:06.417Z,10.52
2023-02-11T16:02:17.627Z,10.85
2023-02-11T16:07:43.079Z,10.10
2023-02-11T16:12:54.896Z,8.60
2023-02-11T16:17:58.770Z,9.75
2023-02-11T16:23:04.117Z,9.40
2023-02-11T16:28:17.475Z,10.30
2023-02-11T16:33:21.574Z,9.13
2023-02-11T16:38:25.380Z,10.80
2023-02-11T16:43:30.408Z,8.63
2023-02-11T16:48:35.180Z,7.25
2023-02-11T16:53:38.539Z,8.25
2023-02-11T16:58:43.645Z,8.68
2023-02-11T17:03:47.160Z,9.02
2023-02-11T17:08:50.740Z,7.60
2023-02-11T17:13:55.688Z,9.25
2023-02-11T17:18:59.075Z,8.80
2023-02-11T17:24:02.412Z,9.20
2023-02-11T17:29:08.581Z,9.63
2023-02-11T17:34:12.818Z,9.48
2023-02-11T17:39:16.517Z,9.18
2023-02-11T17:44:21.345Z,8.88
2023-02-11T17:54:28.307Z,8.63
2023-02-11T17:59:35.647Z,10.23
2023-02-11T18:04:39.386Z,9.88
2023-02-11T18:09:43.285Z,9.10
2023-02-11T18:14:48.073Z,9.10
2023-02-11T18:19:51.730Z,8.15
2023-02-11T18:24:55.938Z,8.95
2023-02-11T18:30:00.768Z,9.65
2023-02-11T18:40:08.239Z,8.93
2023-02-11T18:45:15.908Z,7.82
2023-02-11T18:50:22.292Z,9.57
2023-02-11T18:55:26.409Z,10.00
2023-02-11T19:00:31.492Z,9.43
2023-02-11T19:05:42.585Z,8.88
2023-02-11T19:10:48.345Z,9.57
2023-02-11T19:15:53.630Z,10.27
2023-02-11T19:20:57.127Z,9.05
2023-02-11T19:26:00.571Z,8.35
2023-02-11T19:31:10.657Z,8.43
2023-02-11T19:36:16.542Z,8.70
2023-02-11T19:41:22.363Z,8.68
2023-02-11T19:46:28.586Z,7.95
2023-02-11T19:51:33.926Z,8.55
2023-02-11T19:56:38.233Z,8.00
2023-02-11T20:01:44.633Z,8.63
2023-02-11T20:06:49.636Z,8.45
2023-02-11T20:11:53.167Z,8.13
2023-02-11T20:16:58.192Z,8.80
2023-02-11T20:22:01.711Z,8.73
2023-02-11T20:27:08.444Z,7.53
2023-02-11T20:32:13.760Z,8.70
2023-02-11T20:37:18.033Z,7.70
2023-02-11T20:42:21.405Z,7.43
2023-02-11T20:47:26.344Z,8.00
2023-02-11T20:52:29.931Z,8.30
2023-02-11T20:57:35.218Z,7.05
2023-02-11T21:02:40.357Z,8.23
2023-02-11T21:07:43.781Z,8.00
2023-02-11T21:12:49.797Z,7.93
2023-02-11T21:17:54.764Z,7.30
2023-02-11T21:22:58.175Z,7.43
2023-02-11T21:28:01.731Z,7.68
2023-02-11T21:33:07.147Z,8.00
2023-02-11T21:38:10.708Z,7.60
2023-02-11T21:43:14.211Z,8.27
2023-02-11T21:48:20.090Z,7.75
2023-02-11T21:53:23.464Z,6.70
2023-02-11T21:58:26.862Z,7.38
2023-02-11T22:03:31.712Z,8.23
2023-02-11T22:13:38.424Z,6.90
2023-02-11T22:18:46.049Z,6.57
2023-02-11T22:23:50.314Z,6.35
2023-02-11T22:28:53.868Z,7.28
2023-02-11T22:33:59.256Z,6.90
2023-02-11T22:39:03.940Z,6.40
2023-02-11T22:44:07.660Z,6.90
2023-02-11T22:49:15.531Z,6.97
2023-02-11T22:54:20.422Z,6.13
2023-02-11T23:04:28.618Z,4.80
2023-02-11T23:09:31.968Z,5.30
2023-02-11T23:14:35.417Z,3.60
2023-02-11T23:19:40.154Z,3.45
2023-02-11T23:29:47.375Z,3.00
2023-02-11T23:34:52.976Z,2.50
2023-02-11T23:39:56.336Z,2.67
2023-02-11T23:44:59.819Z,2.60
2023-02-11T23:50:04.969Z,2.38
2023-02-11T23:55:08.622Z,3.10
